createdAt,value
2023-01-30T00:01:00.522Z,-0.19
2023-01-30T00:03:26.971Z,-0.15
2023-01-30T00:05:53.493Z,-0.10
2023-01-30T00:08:19.944Z,-0.25
2023-01-30T00:10:46.837Z,-0.18
2023-01-30T00:13:16.651Z,-0.17
2023-01-30T00:15:43.609Z,-0.24
2023-01-30T00:18:10.328Z,-0.36
2023-01-30T00:20:36.780Z,-0.35
2023-01-30T00:23:03.698Z,-0.28
2023-01-30T00:25:31.553Z,-0.40
2023-01-30T00:28:01.679Z,-0.38
2023-01-30T00:30:29.896Z,-0.63
2023-01-30T00:32:58.203Z,-0.71
2023-01-30T00:35:28.701Z,-0.78
2023-01-30T00:37:59.185Z,-0.75
2023-01-30T00:40:26.171Z,-0.69
2023-01-30T00:45:58.923Z,-0.89
2023-01-30T00:48:25.587Z,-0.94
2023-01-30T00:50:52.069Z,-0.85
2023-01-30T00:53:18.716Z,-0.88
2023-01-30T00:55:45.731Z,-0.83
2023-01-30T00:58:13.246Z,-0.82
2023-01-30T01:00:39.790Z,-0.85
2023-01-30T01:03:07.356Z,-0.93
2023-01-30T01:05:34.174Z,-1.01
2023-01-30T01:08:00.628Z,-1.02
2023-01-30T01:10:27.320Z,-1.06
2023-01-30T01:12:53.826Z,-1.26
2023-01-30T01:15:21.156Z,-1.16
2023-01-30T01:17:48.830Z,-1.28
2023-01-30T01:20:15.782Z,-1.21
2023-01-30T01:22:42.244Z,-1.21
2023-01-30T01:25:09.574Z,-1.40
2023-01-30T01:27:36.368Z,-1.49
2023-01-30T01:30:03.019Z,-1.49
2023-01-30T01:32:29.898Z,-1.50
2023-01-30T01:34:56.328Z,-1.43
2023-01-30T01:37:22.842Z,-1.37
2023-01-30T01:40:08.649Z,-1.37
2023-01-30T01:42:36.833Z,-1.62
2023-01-30T01:45:04.825Z,-1.57
2023-01-30T01:47:34.215Z,-1.67
2023-01-30T01:50:01.010Z,-1.79
2023-01-30T01:52:28.757Z,-1.72
2023-01-30T01:55:02.700Z,-1.83
2023-01-30T01:57:33.543Z,-1.86
2023-01-30T02:00:05.633Z,-1.72
2023-01-30T02:02:43.768Z,-1.76
2023-01-30T02:05:12.790Z,-1.64
2023-01-30T02:07:45.942Z,-1.71
2023-01-30T02:10:17.777Z,-1.61
2023-01-30T02:12:45.249Z,-1.60
2023-01-30T02:15:11.691Z,-1.65
2023-01-30T02:17:39.261Z,-1.58
2023-01-30T02:20:24.672Z,-1.71
2023-01-30T02:23:10.047Z,-1.79
2023-01-30T02:25:36.484Z,-1.80
2023-01-30T02:28:06.155Z,-1.72
2023-01-30T02:30:38.823Z,-1.82
2023-01-30T02:33:25.599Z,-1.93
2023-01-30T02:36:05.578Z,-2.10
2023-01-30T02:38:50.319Z,-2.32
2023-01-30T02:41:22.333Z,-2.21
2023-01-30T02:44:02.961Z,-2.46
2023-01-30T02:47:02.135Z,-2.40
2023-01-30T02:49:38.046Z,-2.24
2023-01-30T02:52:08.251Z,-2.25
2023-01-30T02:54:34.719Z,-2.20
2023-01-30T02:57:01.367Z,-2.25
2023-01-30T02:59:41.974Z,-2.22
2023-01-30T03:02:24.494Z,-2.29
2023-01-30T03:05:05.212Z,-2.24
2023-01-30T03:07:32.074Z,-2.42
2023-01-30T03:10:07.861Z,-2.27
2023-01-30T03:13:00.030Z,-2.27
2023-01-30T03:15:29.795Z,-2.37
2023-01-30T03:17:57.325Z,-2.26
2023-01-30T03:20:23.884Z,-2.29
2023-01-30T03:22:50.940Z,-2.27
2023-01-30T03:25:19.430Z,-2.48
2023-01-30T03:27:46.702Z,-2.45
2023-01-30T03:30:13.423Z,-2.50
2023-01-30T03:32:40.919Z,-2.45
2023-01-30T03:35:07.554Z,-2.46
2023-01-30T03:37:34.060Z,-2.46
2023-01-30T03:40:01.035Z,-2.48
2023-01-30T03:42:27.779Z,-2.42
2023-01-30T03:44:54.311Z,-2.41
2023-01-30T03:47:20.925Z,-2.55
2023-01-30T03:49:49.643Z,-2.55
2023-01-30T03:52:16.174Z,-2.81
2023-01-30T03:54:42.620Z,-2.72
2023-01-30T03:57:09.319Z,-2.69
2023-01-30T03:59:35.923Z,-2.61
2023-01-30T04:02:08.321Z,-2.61
2023-01-30T04:04:35.200Z,-2.65
2023-01-30T04:07:04.378Z,-2.66
2023-01-30T04:09:32.251Z,-2.64
2023-01-30T04:11:58.879Z,-2.88
2023-01-30T04:14:28.597Z,-3.04
2023-01-30T04:17:33.249Z,-2.86
2023-01-30T04:20:08.652Z,-2.72
2023-01-30T04:22:37.288Z,-2.97
2023-01-30T04:25:04.143Z,-3.03
2023-01-30T04:27:30.674Z,-3.07
2023-01-30T04:30:09.817Z,-2.96
2023-01-30T04:32:36.576Z,-2.93
2023-01-30T04:35:03.296Z,-2.95
2023-01-30T04:37:29.796Z,-3.00
2023-01-30T04:39:56.660Z,-2.97
2023-01-30T04:42:26.132Z,-3.06
2023-01-30T04:45:15.796Z,-3.03
2023-01-30T04:47:43.642Z,-2.96
2023-01-30T04:50:10.596Z,-3.02
2023-01-30T04:52:39.642Z,-2.98
2023-01-30T04:55:07.824Z,-3.00
2023-01-30T04:57:34.676Z,-2.93
2023-01-30T05:00:01.158Z,-3.05
2023-01-30T05:02:27.772Z,-2.98
2023-01-30T05:04:54.227Z,-3.03
2023-01-30T05:07:20.662Z,-3.01
2023-01-30T05:09:47.242Z,-3.27
2023-01-30T05:12:14.358Z,-3.24
2023-01-30T05:14:41.350Z,-3.15
2023-01-30T05:17:08.328Z,-3.04
2023-01-30T05:19:34.995Z,-3.09
2023-01-30T05:22:01.402Z,-3.12
2023-01-30T05:24:27.843Z,-3.19
2023-01-30T05:26:54.491Z,-3.12
2023-01-30T05:29:20.979Z,-3.16
2023-01-30T05:31:47.826Z,-3.07
2023-01-30T05:34:14.354Z,-3.12
2023-01-30T05:36:40.839Z,-3.07
2023-01-30T05:39:07.331Z,-3.07
2023-01-30T05:41:33.799Z,-3.06
2023-01-30T05:44:00.210Z,-3.06
2023-01-30T05:46:26.670Z,-3.06
2023-01-30T05:48:53.166Z,-3.11
2023-01-30T05:51:21.643Z,-3.18
2023-01-30T05:53:48.199Z,-3.36
2023-01-30T05:56:15.078Z,-3.45
2023-01-30T05:58:41.662Z,-3.34
2023-01-30T06:01:09.784Z,-3.34
2023-01-30T06:03:36.536Z,-3.17
2023-01-30T06:06:03.764Z,-3.25
2023-01-30T06:08:30.406Z,-3.20
2023-01-30T06:11:04.380Z,-3.07
2023-01-30T06:13:30.929Z,-3.03
2023-01-30T06:15:57.778Z,-3.24
2023-01-30T06:18:24.405Z,-3.24
2023-01-30T06:20:51.579Z,-3.21
2023-01-30T06:23:18.485Z,-2.99
2023-01-30T06:25:45.732Z,-2.92
2023-01-30T06:28:12.828Z,-3.22
2023-01-30T06:30:39.572Z,-3.01
2023-01-30T06:33:06.059Z,-2.86
2023-01-30T06:35:32.592Z,-2.67
2023-01-30T06:37:59.307Z,-2.49
2023-01-30T06:40:25.777Z,-2.46
2023-01-30T06:42:52.219Z,-2.34
2023-01-30T06:45:19.429Z,-1.65
2023-01-30T06:47:46.810Z,-1.29
2023-01-30T06:50:14.525Z,-1.71
2023-01-30T06:52:43.606Z,-1.56
2023-01-30T06:55:11.088Z,-1.68
2023-01-30T06:57:37.606Z,-1.68
2023-01-30T07:00:07.731Z,-1.84
2023-01-30T07:02:35.415Z,-1.72
2023-01-30T07:05:02.740Z,-1.60
2023-01-30T07:07:29.810Z,-1.82
2023-01-30T07:10:07.422Z,-1.45
2023-01-30T07:12:34.976Z,-1.64
2023-01-30T07:15:01.568Z,-1.69
2023-01-30T07:17:28.114Z,-1.68
2023-01-30T07:19:54.550Z,-1.59
2023-01-30T07:22:20.984Z,-1.35
2023-01-30T07:24:47.393Z,-1.51
2023-01-30T07:27:13.942Z,-1.49
2023-01-30T07:29:40.371Z,-1.39
2023-01-30T07:32:07.709Z,-1.52
2023-01-30T07:34:34.272Z,-1.53
2023-01-30T07:37:00.769Z,-1.29
2023-01-30T07:39:27.190Z,-1.23
2023-01-30T07:41:55.876Z,-1.16
2023-01-30T07:44:24.742Z,-1.15
2023-01-30T07:46:51.235Z,-1.22
2023-01-30T07:49:17.771Z,-1.33
2023-01-30T07:51:44.203Z,-1.18
2023-01-30T07:54:10.681Z,-1.08
2023-01-30T07:56:37.192Z,-0.94
2023-01-30T07:59:05.573Z,-1.07
2023-01-30T08:01:32.819Z,-0.65
2023-01-30T08:03:59.601Z,-0.61
2023-01-30T08:06:26.130Z,-0.61
2023-01-30T08:08:52.689Z,-0.83
2023-01-30T08:11:19.136Z,-0.83
2023-01-30T08:13:45.628Z,-0.66
2023-01-30T08:16:12.161Z,-0.70
2023-01-30T08:18:38.716Z,-0.58
2023-01-30T08:21:06.246Z,-0.41
2023-01-30T08:23:33.196Z,-0.51
2023-01-30T08:26:01.317Z,-0.15
2023-01-30T08:28:28.756Z,-0.70
2023-01-30T08:30:55.372Z,-0.66
2023-01-30T08:33:22.199Z,-0.70
2023-01-30T08:35:48.855Z,-0.60
2023-01-30T08:38:15.619Z,-0.47
2023-01-30T08:40:42.494Z,-0.45
2023-01-30T08:43:09.000Z,-0.33
2023-01-30T08:45:35.669Z,0.30
2023-01-30T08:48:06.026Z,0.55
2023-01-30T08:50:33.397Z,0.46
2023-01-30T08:53:04.558Z,1.34
2023-01-30T08:55:31.038Z,1.20
2023-01-30T08:57:57.540Z,1.65
2023-01-30T09:00:24.335Z,1.72
2023-01-30T09:02:53.145Z,2.58
2023-01-30T09:05:19.551Z,2.43
2023-01-30T09:07:45.992Z,2.96
2023-01-30T09:10:12.512Z,2.39
2023-01-30T09:12:38.992Z,1.98
2023-01-30T09:15:05.887Z,1.49
2023-01-30T09:17:32.325Z,1.86
2023-01-30T09:19:58.877Z,2.27
2023-01-30T09:22:26.802Z,2.71
2023-01-30T09:24:53.339Z,3.39
2023-01-30T09:27:19.826Z,2.66
2023-01-30T09:29:46.239Z,2.24
2023-01-30T09:32:12.698Z,2.51
2023-01-30T09:34:39.160Z,1.95
2023-01-30T09:37:05.650Z,2.85
2023-01-30T09:39:32.175Z,2.74
2023-01-30T09:42:04.623Z,2.57
2023-01-30T09:44:46.376Z,2.60
2023-01-30T09:47:39.418Z,2.28
2023-01-30T09:50:11.909Z,2.55
2023-01-30T09:52:47.851Z,2.80
2023-01-30T09:55:14.282Z,2.87
2023-01-30T09:57:41.524Z,2.74
2023-01-30T10:00:15.368Z,3.18
2023-01-30T10:02:50.129Z,3.61
2023-01-30T10:05:16.752Z,3.50
2023-01-30T10:07:52.592Z,2.87
2023-01-30T10:10:37.626Z,2.69
2023-01-30T10:13:13.239Z,3.06
2023-01-30T10:16:03.009Z,2.83
2023-01-30T10:18:29.600Z,3.35
2023-01-30T10:20:59.137Z,3.71
2023-01-30T10:23:35.402Z,3.89
2023-01-30T10:26:08.096Z,2.90
2023-01-30T10:28:37.589Z,3.58
2023-01-30T10:31:05.390Z,3.58
2023-01-30T10:33:34.571Z,3.85
2023-01-30T10:36:04.752Z,3.76
2023-01-30T10:38:44.360Z,3.79
2023-01-30T10:41:26.779Z,4.04
2023-01-30T10:43:58.511Z,4.07
2023-01-30T10:46:34.738Z,4.46
2023-01-30T10:49:05.049Z,4.71
2023-01-30T10:51:50.456Z,5.08
2023-01-30T10:54:37.667Z,4.57
2023-01-30T10:57:22.815Z,4.32
2023-01-30T10:59:59.550Z,4.49
2023-01-30T11:02:35.566Z,5.73
2023-01-30T11:05:13.307Z,6.14
2023-01-30T11:07:40.697Z,6.52
2023-01-30T11:10:15.759Z,6.26
2023-01-30T11:12:42.168Z,7.11
2023-01-30T11:15:09.068Z,6.96
2023-01-30T11:17:37.249Z,6.82
2023-01-30T11:20:23.951Z,6.73
2023-01-30T11:22:52.361Z,7.22
2023-01-30T11:25:21.037Z,6.98
2023-01-30T11:28:01.958Z,7.83
2023-01-30T11:30:35.573Z,7.41
2023-01-30T11:33:16.883Z,7.50
2023-01-30T11:35:55.247Z,8.12
2023-01-30T11:38:26.681Z,7.80
2023-01-30T11:41:05.504Z,8.11
2023-01-30T11:43:32.919Z,9.64
2023-01-30T11:46:00.051Z,8.80
2023-01-30T11:48:33.362Z,9.33
2023-01-30T11:51:15.087Z,9.68
2023-01-30T11:53:44.750Z,9.08
2023-01-30T11:56:22.650Z,8.03
2023-01-30T11:58:58.120Z,9.14
2023-01-30T12:01:29.776Z,8.92
2023-01-30T12:03:57.308Z,8.47
2023-01-30T12:06:37.464Z,8.32
2023-01-30T12:09:04.347Z,10.05
2023-01-30T12:11:30.835Z,8.83
2023-01-30T12:14:16.104Z,9.03
2023-01-30T12:16:48.543Z,8.83
2023-01-30T12:19:14.961Z,9.71
2023-01-30T12:21:44.362Z,9.66
2023-01-30T12:24:28.649Z,9.88
2023-01-30T12:26:58.612Z,9.21
2023-01-30T12:29:36.088Z,9.29
2023-01-30T12:32:14.219Z,9.19
2023-01-30T12:34:41.112Z,9.54
2023-01-30T12:37:13.909Z,9.65
2023-01-30T12:40:04.701Z,9.02
2023-01-30T12:42:36.900Z,10.15
2023-01-30T12:45:22.299Z,9.65
2023-01-30T12:47:58.025Z,10.03
2023-01-30T12:50:31.545Z,9.58
2023-01-30T12:53:13.267Z,9.61
2023-01-30T12:55:55.090Z,9.53
2023-01-30T12:58:26.779Z,9.74
2023-01-30T13:01:02.494Z,9.21
2023-01-30T13:03:35.252Z,9.58
2023-01-30T13:06:07.765Z,9.13
2023-01-30T13:08:41.280Z,10.58
2023-01-30T13:11:29.074Z,9.69
2023-01-30T13:14:07.455Z,9.18
2023-01-30T13:17:00.610Z,8.84
2023-01-30T13:19:40.754Z,9.51
2023-01-30T13:22:19.960Z,9.36
2023-01-30T13:24:52.555Z,10.57
2023-01-30T13:27:20.577Z,10.34
2023-01-30T13:29:47.969Z,10.04
2023-01-30T13:32:16.575Z,9.63
2023-01-30T13:34:44.927Z,9.90
2023-01-30T13:37:11.363Z,10.83
2023-01-30T13:39:41.166Z,9.99
2023-01-30T13:42:20.976Z,10.05
2023-01-30T13:44:49.495Z,9.59
2023-01-30T13:47:39.700Z,9.95
2023-01-30T13:50:23.371Z,9.25
2023-01-30T13:52:49.755Z,9.72
2023-01-30T13:55:25.510Z,9.18
2023-01-30T13:57:51.975Z,9.78
2023-01-30T14:00:34.991Z,9.83
2023-01-30T14:03:21.695Z,9.64
2023-01-30T14:05:51.194Z,9.88
2023-01-30T14:08:19.912Z,9.28
2023-01-30T14:10:47.318Z,9.09
2023-01-30T14:13:14.952Z,9.80
2023-01-30T14:15:55.287Z,8.50
2023-01-30T14:18:27.102Z,8.72
2023-01-30T14:21:11.589Z,8.76
2023-01-30T14:23:38.248Z,9.10
2023-01-30T14:26:04.697Z,9.09
2023-01-30T14:28:31.221Z,8.96
2023-01-30T14:30:59.101Z,8.27
2023-01-30T14:33:25.575Z,7.92
2023-01-30T14:36:00.993Z,7.48
2023-01-30T14:38:30.927Z,7.81
2023-01-30T14:40:57.367Z,8.15
2023-01-30T14:43:26.911Z,8.01
2023-01-30T14:45:57.540Z,8.49
2023-01-30T14:48:24.039Z,8.69
2023-01-30T14:50:50.647Z,8.67
2023-01-30T14:53:17.130Z,8.78
2023-01-30T14:55:43.652Z,8.73
2023-01-30T14:58:15.053Z,9.19
2023-01-30T15:00:41.572Z,8.90
2023-01-30T15:03:17.243Z,7.93
2023-01-30T15:05:44.641Z,7.08
2023-01-30T15:08:24.914Z,6.41
2023-01-30T15:10:54.518Z,6.54
2023-01-30T15:13:26.865Z,6.32
2023-01-30T15:15:53.356Z,5.88
2023-01-30T15:18:40.707Z,5.77
2023-01-30T15:21:13.210Z,4.97
2023-01-30T15:24:02.401Z,4.75
2023-01-30T15:26:46.457Z,4.60
2023-01-30T15:29:25.675Z,4.54
2023-01-30T15:31:59.859Z,4.83
2023-01-30T15:34:30.514Z,4.44
2023-01-30T15:36:57.303Z,4.24
2023-01-30T15:39:23.845Z,3.99
2023-01-30T15:41:57.044Z,3.66
2023-01-30T15:44:23.450Z,3.60
2023-01-30T15:46:56.841Z,3.49
2023-01-30T15:49:32.712Z,3.62
2023-01-30T15:52:06.883Z,3.57
2023-01-30T15:54:33.340Z,3.49
2023-01-30T15:57:00.630Z,3.23
2023-01-30T15:59:30.333Z,3.13
2023-01-30T16:02:01.041Z,3.11
2023-01-30T16:04:28.517Z,3.39
2023-01-30T16:06:55.055Z,3.47
2023-01-30T16:09:22.579Z,3.34
2023-01-30T16:11:50.355Z,3.36
2023-01-30T16:14:18.116Z,3.30
2023-01-30T16:16:44.694Z,3.31
2023-01-30T16:19:15.307Z,3.27
2023-01-30T16:21:44.967Z,3.45
2023-01-30T16:24:17.882Z,3.43
2023-01-30T16:26:50.268Z,3.35
2023-01-30T16:29:18.353Z,3.14
2023-01-30T16:31:46.020Z,3.53
2023-01-30T16:34:27.968Z,3.60
2023-01-30T16:36:55.145Z,3.64
2023-01-30T16:39:48.450Z,3.29
2023-01-30T16:42:23.289Z,3.16
2023-01-30T16:44:50.065Z,3.36
2023-01-30T16:47:27.593Z,3.44
2023-01-30T16:49:55.864Z,3.33
2023-01-30T16:52:34.560Z,3.20
2023-01-30T16:55:02.768Z,3.13
2023-01-30T16:57:36.580Z,3.13
2023-01-30T17:00:22.159Z,3.14
2023-01-30T17:02:51.830Z,3.12
2023-01-30T17:05:19.870Z,4.02
2023-01-30T17:07:47.059Z,3.37
2023-01-30T17:10:36.660Z,2.81
2023-01-30T17:13:03.699Z,2.69
2023-01-30T17:15:34.439Z,2.61
2023-01-30T17:18:01.344Z,3.19
2023-01-30T17:20:31.871Z,2.70
2023-01-30T17:23:01.192Z,2.65
2023-01-30T17:25:32.890Z,2.34
2023-01-30T17:27:59.471Z,2.28
2023-01-30T17:30:25.956Z,2.30
2023-01-30T17:32:52.428Z,2.35
2023-01-30T17:35:19.348Z,2.03
2023-01-30T17:37:56.312Z,2.03
2023-01-30T17:40:34.632Z,2.24
2023-01-30T17:43:01.253Z,2.25
2023-01-30T17:45:28.040Z,2.49
2023-01-30T17:47:54.852Z,2.56
2023-01-30T17:50:21.611Z,2.76
2023-01-30T17:52:48.267Z,3.05
2023-01-30T17:55:14.917Z,3.03
2023-01-30T17:57:42.793Z,2.81
2023-01-30T18:00:14.559Z,2.92
2023-01-30T18:02:41.029Z,3.02
2023-01-30T18:05:08.435Z,3.12
2023-01-30T18:07:34.979Z,3.09
2023-01-30T18:10:01.407Z,3.15
2023-01-30T18:12:27.931Z,3.18
2023-01-30T18:14:54.379Z,4.28
2023-01-30T18:17:21.319Z,3.79
2023-01-30T18:19:47.821Z,3.55
2023-01-30T18:22:14.241Z,2.62
2023-01-30T18:24:40.692Z,2.29
2023-01-30T18:27:07.129Z,2.61
2023-01-30T18:29:33.615Z,2.73
2023-01-30T18:32:05.000Z,2.56
2023-01-30T18:34:32.194Z,2.92
2023-01-30T18:36:58.822Z,3.24
2023-01-30T18:39:25.340Z,3.70
2023-01-30T18:41:51.761Z,4.15
2023-01-30T18:44:18.252Z,4.17
2023-01-30T18:46:44.917Z,4.30
2023-01-30T18:49:11.542Z,4.55
2023-01-30T18:51:37.980Z,4.77
2023-01-30T18:54:04.408Z,4.63
2023-01-30T18:56:31.971Z,4.58
2023-01-30T18:59:02.310Z,4.67
2023-01-30T19:01:29.791Z,4.81
2023-01-30T19:03:57.261Z,4.94
2023-01-30T19:06:24.283Z,4.89
2023-01-30T19:08:50.799Z,4.87
2023-01-30T19:11:37.448Z,4.90
2023-01-30T19:14:04.787Z,4.78
2023-01-30T19:16:32.335Z,4.71
2023-01-30T19:18:58.937Z,4.89
2023-01-30T19:21:25.857Z,4.89
2023-01-30T19:23:53.399Z,5.04
2023-01-30T19:26:21.333Z,5.07
2023-01-30T19:28:48.244Z,5.24
2023-01-30T19:31:16.508Z,5.21
2023-01-30T19:33:43.602Z,5.17
2023-01-30T19:36:11.162Z,5.13
2023-01-30T19:38:37.672Z,5.08
2023-01-30T19:41:04.601Z,5.20
2023-01-30T19:43:31.088Z,5.23
2023-01-30T19:45:58.631Z,5.24
2023-01-30T19:48:25.338Z,5.39
2023-01-30T19:50:52.188Z,5.20
2023-01-30T19:53:19.136Z,5.22
2023-01-30T19:55:49.436Z,5.30
2023-01-30T19:58:15.922Z,5.41
2023-01-30T20:00:43.235Z,5.26
2023-01-30T20:03:12.762Z,5.48
2023-01-30T20:05:39.691Z,5.22
2023-01-30T20:08:06.148Z,4.98
2023-01-30T20:10:32.602Z,5.09
2023-01-30T20:12:59.079Z,5.22
2023-01-30T20:15:25.861Z,5.13
2023-01-30T20:17:52.313Z,5.10
2023-01-30T20:20:19.199Z,5.22
2023-01-30T20:22:45.730Z,5.17
2023-01-30T20:25:12.162Z,5.07
2023-01-30T20:27:39.416Z,4.89
2023-01-30T20:30:06.255Z,5.31
2023-01-30T20:32:35.628Z,5.06
2023-01-30T20:35:02.075Z,5.13
2023-01-30T20:37:28.619Z,4.92
2023-01-30T20:39:55.369Z,4.90
2023-01-30T20:42:21.847Z,5.19
2023-01-30T20:44:48.295Z,4.57
2023-01-30T20:47:14.765Z,4.61
2023-01-30T20:49:41.196Z,4.52
2023-01-30T20:52:07.682Z,4.26
2023-01-30T20:54:34.589Z,4.42
2023-01-30T20:57:02.673Z,4.34
2023-01-30T20:59:29.348Z,4.26
2023-01-30T21:01:55.910Z,4.35
2023-01-30T21:04:24.403Z,4.43
2023-01-30T21:06:51.278Z,4.48
2023-01-30T21:09:18.944Z,4.73
2023-01-30T21:11:45.874Z,4.36
2023-01-30T21:14:13.239Z,4.07
2023-01-30T21:16:40.344Z,3.95
2023-01-30T21:19:08.017Z,4.06
2023-01-30T21:21:36.226Z,4.29
2023-01-30T21:24:04.547Z,4.48
2023-01-30T21:26:33.075Z,4.55
2023-01-30T21:29:03.350Z,4.42
2023-01-30T21:31:31.007Z,4.75
2023-01-30T21:33:58.422Z,4.15
2023-01-30T21:36:26.231Z,4.42
2023-01-30T21:39:11.384Z,4.46
2023-01-30T21:41:50.966Z,4.45
2023-01-30T21:44:18.554Z,4.09
2023-01-30T21:46:46.675Z,4.04
2023-01-30T21:49:14.192Z,4.09
2023-01-30T21:51:49.555Z,4.39
2023-01-30T21:54:16.787Z,4.49
2023-01-30T21:56:43.676Z,4.22
2023-01-30T21:59:10.111Z,4.07
2023-01-30T22:01:37.844Z,4.18
2023-01-30T22:04:05.313Z,4.15
2023-01-30T22:06:31.798Z,4.37
2023-01-30T22:08:59.024Z,4.57
2023-01-30T22:11:25.950Z,4.30
2023-01-30T22:13:52.752Z,4.16
2023-01-30T22:16:20.695Z,4.11
2023-01-30T22:18:47.906Z,4.03
2023-01-30T22:21:16.147Z,4.08
2023-01-30T22:23:43.909Z,3.98
2023-01-30T22:26:10.940Z,3.86
2023-01-30T22:28:38.456Z,4.22
2023-01-30T22:31:12.931Z,4.04
2023-01-30T22:33:39.831Z,3.83
2023-01-30T22:36:07.436Z,3.92
2023-01-30T22:38:34.217Z,3.83
2023-01-30T22:41:08.623Z,3.72
2023-01-30T22:43:36.159Z,3.85
2023-01-30T22:46:04.818Z,3.96
2023-01-30T22:48:31.616Z,3.92
2023-01-30T22:51:07.000Z,3.97
2023-01-30T22:53:33.500Z,4.17
2023-01-30T22:56:01.658Z,4.10
2023-01-30T22:58:28.480Z,3.86
2023-01-30T23:00:55.159Z,3.90
2023-01-30T23:03:21.638Z,4.00
2023-01-30T23:06:07.794Z,4.01
2023-01-30T23:08:35.731Z,3.93
2023-01-30T23:11:07.262Z,4.15
2023-01-30T23:13:33.777Z,3.97
2023-01-30T23:16:01.375Z,3.93
2023-01-30T23:18:46.198Z,4.28
2023-01-30T23:21:13.243Z,3.83
2023-01-30T23:23:40.047Z,3.92
2023-01-30T23:26:07.180Z,3.79
2023-01-30T23:28:34.572Z,3.92
2023-01-30T23:31:27.538Z,3.87
2023-01-30T23:33:55.083Z,3.88
2023-01-30T23:36:21.971Z,3.83
2023-01-30T23:38:50.050Z,3.71
2023-01-30T23:41:17.957Z,4.86
2023-01-30T23:43:45.800Z,4.38
2023-01-30T23:46:17.287Z,4.17
2023-01-30T23:48:44.519Z,3.87
2023-01-30T23:51:11.301Z,3.91
2023-01-30T23:53:37.972Z,3.72
2023-01-30T23:56:04.876Z,3.73
2023-01-30T23:58:31.302Z,4.00
